Time;durP1;ratioP1;P1;durP2;ratioP2;P2;SDS_P1;SDS_P2;PMS_P1;PMS_P2;Temp;Humidity;BMP_temperature;BMP_pressure;BME280_temperature;BME280_humidity;BME280_pressure;Samples;Min_cycle;Max_cycle;Signal;HPM_P1;HPM_P2
2023/03/04 00:01:05;;;;;;;8.50;5.57;;;;;;;-0.01;58.49;99464.09;5135049;27;43083;-79
2023/03/04 00:03:33;;;;;;;10.97;6.50;;;;;;;-0.02;58.50;99467.59;5117016;27;38213;-79
2023/03/04 00:06:02;;;;;;;11.27;6.63;;;;;;;-0.05;58.75;99462.41;5133382;27;42029;-78
2023/03/04 00:08:29;;;;;;;11.33;7.57;;;;;;;-0.11;59.18;99462.44;5116872;27;41792;-78
2023/03/04 00:11:01;;;;;;;11.73;6.43;;;;;;;-0.14;59.74;99455.56;5133908;27;43207;-78
2023/03/04 00:13:28;;;;;;;10.80;6.30;;;;;;;-0.12;59.63;99463.31;5116859;27;39183;-81
2023/03/04 00:15:56;;;;;;;13.90;6.83;;;;;;;-0.15;59.49;99463.38;5133455;27;40835;-82
2023/03/04 00:18:23;;;;;;;13.70;6.97;;;;;;;-0.37;59.49;99434.94;5116450;27;42999;-79
2023/03/04 00:20:51;;;;;;;10.20;6.20;;;;;;;-0.24;59.76;99463.44;5133673;27;43248;-78
2023/03/04 00:23:20;;;;;;;12.30;6.90;;;;;;;-0.23;59.65;99466.03;5116331;27;38764;-77
2023/03/04 00:25:48;;;;;;;13.53;7.60;;;;;;;-0.27;59.71;99453.09;5133420;27;40087;-79
2023/03/04 00:28:15;;;;;;;12.17;7.73;;;;;;;-0.31;60.06;99464.41;5133805;27;43817;-76
2023/03/04 00:30:43;;;;;;;11.73;6.70;;;;;;;-0.31;59.95;99467.00;5133420;27;42890;-81
2023/03/04 00:33:10;;;;;;;12.20;7.27;;;;;;;-0.33;60.08;99466.13;5133753;27;39936;-79
2023/03/04 00:35:38;;;;;;;13.93;7.60;;;;;;;-0.66;60.32;99416.16;5133152;27;42738;-83
2023/03/04 00:38:06;;;;;;;11.77;7.27;;;;;;;-0.38;61.27;99459.25;5134675;27;42757;-80
2023/03/04 00:40:35;;;;;;;14.00;7.30;;;;;;;-0.49;60.67;99450.66;5116335;27;42670;-78
2023/03/04 00:43:03;;;;;;;14.53;8.27;;;;;;;-0.41;60.93;99469.69;5133478;27;39898;-82
2023/03/04 00:45:30;;;;;;;13.40;8.27;;;;;;;-0.43;60.72;99471.44;5133129;27;41812;-79
2023/03/04 00:47:58;;;;;;;11.50;6.73;;;;;;;-0.56;60.82;99448.13;5116085;27;42170;-84
2023/03/04 00:50:25;;;;;;;11.50;7.07;;;;;;;-0.54;60.74;99462.84;5133015;27;43190;-81
2023/03/04 00:52:53;;;;;;;11.17;6.33;;;;;;;-0.54;61.17;99454.19;5116272;27;39258;-77
2023/03/04 00:55:21;;;;;;;15.30;8.17;;;;;;;-0.48;61.33;99468.00;5115760;27;40632;-81
2023/03/04 00:57:50;;;;;;;11.90;6.90;;;;;;;-0.50;61.42;99469.78;5133186;27;43896;-81
2023/03/04 01:00:18;;;;;;;15.43;8.43;;;;;;;-0.50;61.78;99463.72;5133130;27;42090;-78
2023/03/04 01:02:46;;;;;;;13.63;7.53;;;;;;;-0.52;61.67;99463.72;5134171;27;40564;-80
2023/03/04 01:05:15;;;;;;;11.67;7.40;;;;;;;-0.56;61.80;99453.34;5115465;27;40617;-77
2023/03/04 01:07:42;;;;;;;13.67;7.43;;;;;;;-0.55;61.85;99461.13;5130297;27;43471;-80
2023/03/04 01:10:12;;;;;;;10.17;7.03;;;;;;;-0.60;61.80;99451.63;5115736;27;41105;-82
2023/03/04 01:12:41;;;;;;;13.37;7.87;;;;;;;-0.89;62.12;99418.94;5133141;27;38992;-78
2023/03/04 01:15:13;;;;;;;13.70;6.57;;;;;;;-0.59;62.09;99464.63;5115622;27;40908;-79
2023/03/04 01:17:41;;;;;;;15.70;7.80;;;;;;;-0.61;61.79;99470.69;5115439;27;41480;-80
2023/03/04 01:20:10;;;;;;;14.10;7.57;;;;;;;-0.61;62.45;99466.38;5133008;27;42241;-81
2023/03/04 01:22:38;;;;;;;12.13;6.57;;;;;;;-0.65;62.51;99458.63;5115759;27;40527;-82
2023/03/04 01:25:07;;;;;;;13.73;7.93;;;;;;;-0.62;62.96;99461.19;5115400;27;42368;-78
2023/03/04 01:27:34;;;;;;;13.67;6.73;;;;;;;-0.65;62.79;99464.69;5132780;27;43120;-78
2023/03/04 01:30:03;;;;;;;19.67;9.87;;;;;;;-0.65;63.14;99464.69;5133897;27;43251;-83
2023/03/04 01:32:32;;;;;;;15.67;7.97;;;;;;;-0.66;63.49;99464.69;5115562;27;38895;-79
2023/03/04 01:35:00;;;;;;;13.07;8.00;;;;;;;-0.68;63.19;99459.50;5132506;27;41661;-81
2023/03/04 01:37:27;;;;;;;13.13;8.67;;;;;;;-0.70;63.74;99458.66;5114700;27;43495;-78
2023/03/04 01:39:55;;;;;;;15.73;8.43;;;;;;;-0.73;64.16;99454.31;5115165;27;41004;-77
2023/03/04 01:42:26;;;;;;;18.43;9.13;;;;;;;-0.86;63.94;99431.03;5115509;27;39183;-78
2023/03/04 01:44:54;;;;;;;20.10;9.77;;;;;;;-0.82;64.47;99435.34;5132612;27;40710;-81
2023/03/04 01:47:31;;;;;;;13.83;8.30;;;;;;;-0.75;64.46;99447.44;5115262;27;41750;-77
2023/03/04 01:50:02;;;;;;;12.80;8.00;;;;;;;-0.76;64.60;99456.09;5115439;27;41432;-77
2023/03/04 01:52:30;;;;;;;12.40;7.53;;;;;;;-0.78;66.77;99429.25;5115380;27;41591;-81
2023/03/04 01:54:58;;;;;;;16.50;8.63;;;;;;;-0.80;65.80;99439.66;5132229;27;42024;-78
2023/03/04 01:57:26;;;;;;;15.67;9.17;;;;;;;-0.81;65.68;99437.94;5132474;27;43710;-78
2023/03/04 02:00:22;;;;;;;16.60;9.60;;;;;;;-0.88;66.16;99419.78;5132265;27;43144;-79
2023/03/04 02:02:53;;;;;;;17.40;9.57;;;;;;;-0.88;66.21;99425.88;5115321;27;39932;-77
2023/03/04 02:05:23;;;;;;;16.97;8.93;;;;;;;-0.87;65.77;99427.59;5131926;27;42418;-82
2023/03/04 02:07:53;;;;;;;13.00;8.50;;;;;;;-0.84;65.70;99434.47;5132042;27;42638;-81
2023/03/04 02:10:21;;;;;;;16.23;9.63;;;;;;;-0.91;66.25;99414.63;5115067;27;41065;-77
2023/03/04 02:12:48;;;;;;;12.93;8.40;;;;;;;-0.80;65.61;99425.78;5115250;27;40104;-77
2023/03/04 02:15:16;;;;;;;13.37;8.70;;;;;;;-0.76;66.39;99415.38;5132005;27;41846;-81
2023/03/04 02:17:44;;;;;;;15.63;9.63;;;;;;;-0.71;66.10;99412.72;5114657;27;41609;-82
2023/03/04 02:20:23;;;;;;;20.27;10.77;;;;;;;-0.68;65.99;99412.69;5114944;27;40904;-80
2023/03/04 02:23:01;;;;;;;15.33;7.93;;;;;;;-0.67;65.72;99406.63;5129231;27;40110;-76
2023/03/04 02:25:34;;;;;;;14.83;8.33;;;;;;;-0.64;65.81;99392.72;5131577;27;41828;-78
2023/03/04 02:28:04;;;;;;;16.00;9.40;;;;;;;-0.69;66.62;99378.88;5115483;27;42223;-81
2023/03/04 02:30:31;;;;;;;22.73;11.87;;;;;;;-0.62;68.71;99385.78;5114595;27;41240;-77
2023/03/04 02:33:00;;;;;;;16.77;9.43;;;;;;;-0.61;67.04;99395.28;5114755;27;39871;-79
2023/03/04 02:35:28;;;;;;;16.53;9.60;;;;;;;-0.59;66.83;99397.00;5133058;27;41826;-79
2023/03/04 02:37:56;;;;;;;14.83;8.37;;;;;;;-0.56;66.67;99396.97;5132057;27;43798;-78
2023/03/04 02:40:29;;;;;;;12.70;8.80;;;;;;;-0.47;66.55;99398.63;5114866;27;42365;-79
2023/03/04 02:42:59;;;;;;;16.27;9.40;;;;;;;-0.30;66.58;99403.66;5129080;27;40848;-76
2023/03/04 02:45:49;;;;;;;16.60;9.47;;;;;;;-0.11;66.37;99400.84;5114404;27;41815;-79
2023/03/04 02:48:20;;;;;;;15.10;9.50;;;;;;;0.05;69.27;99388.50;5109685;27;42163;-81
2023/03/04 02:50:49;;;;;;;17.47;9.93;;;;;;;0.19;68.38;99394.44;5136882;27;41972;-77
2023/03/04 02:53:17;;;;;;;17.27;10.60;;;;;;;0.34;67.37;99398.59;5118152;27;40028;-78
2023/03/04 02:55:45;;;;;;;16.63;10.23;;;;;;;0.47;68.49;99397.53;5135225;27;42753;-82
2023/03/04 02:58:14;;;;;;;17.10;11.13;;;;;;;0.58;68.32;99394.78;5135499;27;43997;-79
2023/03/04 03:00:42;;;;;;;15.70;9.17;;;;;;;0.69;67.81;99398.97;5118145;27;42904;-79
2023/03/04 03:03:11;;;;;;;16.93;10.03;;;;;;;0.80;68.53;99393.59;5117702;27;40003;-80
2023/03/04 03:05:39;;;;;;;18.03;10.23;;;;;;;0.89;67.65;99395.19;5134722;27;42393;-79
2023/03/04 03:08:08;;;;;;;15.10;9.77;;;;;;;0.99;67.42;99397.63;5118164;27;41581;-83
2023/03/04 03:10:36;;;;;;;15.97;9.33;;;;;;;0.99;67.40;99384.59;5134932;27;43125;-78
2023/03/04 03:13:05;;;;;;;11.83;8.40;;;;;;;1.14;66.78;99387.84;5135208;27;39873;-81
2023/03/04 03:15:34;;;;;;;15.53;9.40;;;;;;;1.22;67.36;99391.22;5117661;27;41332;-78
2023/03/04 03:18:01;;;;;;;13.73;8.63;;;;;;;1.24;66.68;99379.84;5117336;27;41468;-79
2023/03/04 03:20:31;;;;;;;15.90;9.50;;;;;;;1.26;66.50;99392.88;5134861;27;41363;-80
2023/03/04 03:22:58;;;;;;;13.80;8.67;;;;;;;1.27;66.25;99398.06;5117645;27;38890;-79
2023/03/04 03:25:26;;;;;;;14.20;8.07;;;;;;;1.24;66.00;99392.91;5134652;27;41991;-80
2023/03/04 03:27:54;;;;;;;18.10;9.37;;;;;;;1.32;65.69;99392.78;5117340;27;43535;-81
2023/03/04 03:30:23;;;;;;;12.27;8.10;;;;;;;1.38;65.85;99398.75;5117461;27;41086;-81
2023/03/04 03:32:50;;;;;;;13.73;9.20;;;;;;;1.44;65.55;99392.56;5134574;27;40994;-82
2023/03/04 03:35:18;;;;;;;15.03;9.00;;;;;;;1.51;65.35;99394.19;5134576;27;42756;-81
2023/03/04 03:37:48;;;;;;;13.23;9.17;;;;;;;1.56;65.28;99392.38;5117274;27;41731;-76
2023/03/04 03:40:16;;;;;;;16.23;10.33;;;;;;;1.53;65.99;99379.34;5116837;27;44128;-78
2023/03/04 03:42:44;;;;;;;16.67;9.90;;;;;;;1.68;65.81;99391.28;5117006;27;39120;-80
2023/03/04 03:45:11;;;;;;;14.83;9.03;;;;;;;1.58;65.51;99361.88;5116798;27;40515;-80
2023/03/04 03:47:39;;;;;;;15.93;9.67;;;;;;;1.72;65.43;99378.16;5134400;27;42744;-78
2023/03/04 03:50:07;;;;;;;16.50;9.90;;;;;;;1.85;66.23;99388.38;5133707;27;41634;-80
2023/03/04 03:52:34;;;;;;;15.73;9.77;;;;;;;1.83;65.86;99374.47;5117127;27;39061;-76
2023/03/04 03:55:04;;;;;;;15.10;9.17;;;;;;;1.93;66.08;99386.47;5134493;27;41409;-77
2023/03/04 03:57:31;;;;;;;17.93;9.80;;;;;;;1.69;66.10;99340.78;5134115;27;42725;-80
2023/03/04 03:59:59;;;;;;;15.50;10.40;;;;;;;2.02;66.16;99386.28;5134987;27;42319;-80
2023/03/04 04:02:27;;;;;;;15.07;10.17;;;;;;;2.06;66.18;99393.16;5117118;27;40508;-78
2023/03/04 04:04:54;;;;;;;17.50;11.03;;;;;;;1.92;66.26;99364.72;5133440;27;41869;-79
2023/03/04 04:07:22;;;;;;;16.67;11.10;;;;;;;2.06;66.23;99387.94;5131645;27;42538;-80
2023/03/04 04:09:50;;;;;;;15.33;10.23;;;;;;;2.18;66.10;99395.53;5116654;27;43104;-78
2023/03/04 04:12:20;;;;;;;17.77;11.03;;;;;;;2.21;65.92;99400.72;5134121;27;40412;-79
2023/03/04 04:14:47;;;;;;;17.07;10.17;;;;;;;2.26;65.84;99401.47;5116714;27;42792;-80
2023/03/04 04:17:15;;;;;;;17.97;11.07;;;;;;;2.28;66.05;99399.69;5133714;27;41856;-80
2023/03/04 04:19:43;;;;;;;19.20;11.23;;;;;;;2.30;66.36;99400.50;5133819;27;41430;-79
2023/03/04 04:22:14;;;;;;;20.20;11.60;;;;;;;2.34;66.56;99391.72;5133914;27;40002;-79
2023/03/04 04:24:42;;;;;;;20.60;11.73;;;;;;;2.37;66.72;99389.03;5116468;27;41190;-80
2023/03/04 04:27:10;;;;;;;18.77;12.57;;;;;;;2.39;66.84;99389.84;5116439;27;42761;-83
2023/03/04 04:29:40;;;;;;;17.67;10.87;;;;;;;2.36;66.82;99374.25;5133663;27;43242;-78
2023/03/04 04:32:08;;;;;;;18.33;10.90;;;;;;;2.45;66.85;99386.28;5133790;27;40007;-78
2023/03/04 04:34:36;;;;;;;17.80;10.97;;;;;;;2.49;66.69;99382.69;5116189;27;41024;-83
2023/03/04 04:37:03;;;;;;;16.27;10.83;;;;;;;2.41;67.09;99364.56;5116538;27;41894;-81
2023/03/04 04:39:31;;;;;;;16.90;11.70;;;;;;;2.53;67.37;99377.38;5133076;27;42036;-78
2023/03/04 04:41:58;;;;;;;20.43;12.30;;;;;;;2.57;67.36;99382.53;5133576;27;38790;-79
2023/03/04 04:44:26;;;;;;;18.83;10.93;;;;;;;2.58;67.43;99381.63;5134611;27;41788;-82
2023/03/04 04:46:55;;;;;;;18.63;11.40;;;;;;;2.60;67.61;99378.06;5133347;27;43720;-79
2023/03/04 04:49:23;;;;;;;19.70;11.90;;;;;;;2.61;67.79;99371.94;5134023;27;42297;-78
2023/03/04 04:51:50;;;;;;;17.67;11.30;;;;;;;2.53;67.72;99352.97;5117138;27;39080;-79
2023/03/04 04:54:19;;;;;;;16.83;10.73;;;;;;;2.67;67.80;99386.66;5116355;27;42191;-80
2023/03/04 04:56:46;;;;;;;17.60;11.43;;;;;;;2.70;67.32;99386.59;5133542;27;42825;-77
2023/03/04 04:59:14;;;;;;;18.90;11.73;;;;;;;2.73;67.37;99381.28;5115975;27;41175;-79
2023/03/04 05:01:42;;;;;;;18.67;11.87;;;;;;;2.75;67.48;99379.50;5132899;27;39335;-83
2023/03/04 05:04:11;;;;;;;17.90;11.73;;;;;;;2.67;67.70;99366.59;5132293;27;41514;-80
2023/03/04 05:06:39;;;;;;;16.20;10.63;;;;;;;2.78;67.48;99382.03;5132954;27;44405;-81
2023/03/04 05:09:07;;;;;;;17.30;11.47;;;;;;;2.71;67.94;99365.66;5134238;27;43004;-84
2023/03/04 05:11:34;;;;;;;15.90;10.70;;;;;;;2.80;67.46;99385.50;5132368;27;39974;-79
2023/03/04 05:14:02;;;;;;;19.40;11.80;;;;;;;2.83;67.42;99388.03;5133122;27;42555;-80
2023/03/04 05:16:30;;;;;;;19.23;11.23;;;;;;;2.78;67.61;99375.06;5115930;27;43357;-80
2023/03/04 05:18:57;;;;;;;16.20;10.33;;;;;;;2.86;67.76;99393.19;5133924;27;42926;-80
2023/03/04 05:21:26;;;;;;;17.87;11.93;;;;;;;2.88;67.60;99386.16;5133221;27;39804;-83
2023/03/04 05:23:54;;;;;;;20.47;11.83;;;;;;;2.87;67.33;99384.44;5132872;27;40540;-81
2023/03/04 05:26:22;;;;;;;18.67;11.63;;;;;;;2.89;67.57;99382.66;5132780;27;43424;-82
2023/03/04 05:28:49;;;;;;;19.23;11.03;;;;;;;2.92;67.23;99393.06;5133965;27;43141;-81
2023/03/04 05:31:17;;;;;;;17.40;11.50;;;;;;;2.94;67.64;99387.78;5132644;27;41489;-80
2023/03/04 05:33:45;;;;;;;17.47;11.07;;;;;;;2.95;67.36;99390.38;5132850;27;42592;-81
2023/03/04 05:36:12;;;;;;;16.83;11.07;;;;;;;2.84;67.76;99366.22;5115585;27;43284;-81
2023/03/04 05:38:42;;;;;;;18.13;11.13;;;;;;;2.84;67.27;99369.66;5115365;27;43425;-78
2023/03/04 05:41:09;;;;;;;16.60;11.13;;;;;;;2.98;67.41;99398.13;5115750;27;38901;-79
2023/03/04 05:43:41;;;;;;;17.80;11.60;;;;;;;3.00;66.96;99401.56;5133924;27;42619;-77
2023/03/04 05:46:13;;;;;;;16.27;11.30;;;;;;;3.00;67.47;99396.34;5129382;27;42722;-80
2023/03/04 05:48:40;;;;;;;17.77;11.27;;;;;;;2.81;67.54;99364.53;5129592;27;42269;-81
2023/03/04 05:51:08;;;;;;;19.97;12.17;;;;;;;3.03;67.40;99405.88;5132380;27;40596;-79
2023/03/04 05:53:36;;;;;;;19.47;12.80;;;;;;;3.02;67.07;99399.78;5133698;27;42619;-77
2023/03/04 05:56:09;;;;;;;15.67;10.90;;;;;;;3.10;67.07;99408.31;5114913;27;42984;-81
2023/03/04 05:58:37;;;;;;;19.27;11.50;;;;;;;3.12;66.85;99411.75;5132112;27;41525;-81
2023/03/04 06:01:05;;;;;;;17.50;11.20;;;;;;;3.14;66.61;99416.97;5132216;27;39249;-80
2023/03/04 06:03:33;;;;;;;14.73;10.97;;;;;;;3.17;66.35;99419.50;5115113;27;40484;-81
2023/03/04 06:06:01;;;;;;;17.63;11.17;;;;;;;3.16;66.38;99408.19;5131109;27;43753;-79
2023/03/04 06:08:29;;;;;;;18.43;12.60;;;;;;;3.17;67.00;99417.75;5133427;27;42942;-79
2023/03/04 06:10:57;;;;;;;17.33;11.80;;;;;;;3.19;66.37;99417.72;5114622;27;40088;-77
2023/03/04 06:13:27;;;;;;;16.03;10.17;;;;;;;3.21;66.41;99426.41;5132129;27;42629;-80
2023/03/04 06:15:56;;;;;;;16.23;10.30;;;;;;;3.24;66.18;99427.16;5132033;27;42552;-80
2023/03/04 06:18:24;;;;;;;16.87;10.83;;;;;;;3.24;66.22;99429.78;5114941;27;41131;-83
2023/03/04 06:20:56;;;;;;;16.50;11.37;;;;;;;3.29;66.09;99428.81;5132113;27;40097;-82
2023/03/04 06:23:24;;;;;;;16.67;11.43;;;;;;;3.25;66.15;99428.88;5134533;27;43467;-81
2023/03/04 06:25:52;;;;;;;17.47;11.60;;;;;;;3.30;66.03;99433.16;5118249;27;41685;-83
2023/03/04 06:28:20;;;;;;;16.10;10.63;;;;;;;3.35;65.63;99433.91;5135517;27;42058;-80
2023/03/04 06:30:51;;;;;;;16.80;10.57;;;;;;;3.39;65.63;99440.78;5136972;27;39922;-82
2023/03/04 06:33:19;;;;;;;16.87;10.90;;;;;;;3.40;65.45;99439.91;5135489;27;41519;-84
2023/03/04 06:35:47;;;;;;;19.17;11.47;;;;;;;3.45;65.05;99435.41;5136693;27;42685;-80
2023/03/04 06:38:15;;;;;;;18.47;11.80;;;;;;;3.41;65.02;99433.75;5118434;27;42534;-82
2023/03/04 06:40:43;;;;;;;16.07;11.27;;;;;;;3.52;65.10;99447.44;5135841;27;40290;-83
2023/03/04 06:43:10;;;;;;;15.63;10.20;;;;;;;3.55;64.94;99447.38;5135427;27;40817;-78
2023/03/04 06:45:39;;;;;;;18.50;11.70;;;;;;;3.58;64.67;99456.03;5118078;27;41611;-78
2023/03/04 06:48:08;;;;;;;17.20;11.10;;;;;;;3.61;64.68;99447.22;5117706;27;42242;-79
2023/03/04 06:50:36;;;;;;;18.07;10.40;;;;;;;3.65;64.72;99453.25;5118033;27;40060;-79
2023/03/04 06:53:03;;;;;;;17.23;11.03;;;;;;;3.60;64.33;99442.88;5135026;27;43266;-80
2023/03/04 06:55:31;;;;;;;15.60;11.47;;;;;;;3.72;64.41;99458.28;5117447;27;41906;-80
2023/03/04 06:57:59;;;;;;;16.93;11.20;;;;;;;3.75;64.09;99452.97;5117759;27;42706;-77
2023/03/04 07:00:26;;;;;;;15.67;10.93;;;;;;;3.80;64.02;99464.19;5135004;27;41518;-80
2023/03/04 07:02:54;;;;;;;18.83;11.33;;;;;;;3.82;63.92;99457.16;5134837;27;42678;-79
2023/03/04 07:05:23;;;;;;;17.17;11.20;;;;;;;3.66;64.06;99434.88;5117059;27;43205;-81
2023/03/04 07:07:50;;;;;;;15.03;10.73;;;;;;;3.83;63.66;99458.88;5135015;27;42269;-81
2023/03/04 07:10:19;;;;;;;15.80;10.93;;;;;;;3.95;63.68;99463.81;5117715;27;40574;-78
2023/03/04 07:12:47;;;;;;;16.57;11.87;;;;;;;4.01;63.29;99472.41;5117544;27;40785;-78
2023/03/04 07:15:20;;;;;;;17.27;10.23;;;;;;;4.04;63.04;99474.94;5117493;27;43185;-80
2023/03/04 07:17:48;;;;;;;14.90;10.37;;;;;;;4.07;62.78;99480.13;5135935;27;42435;-79
2023/03/04 07:20:16;;;;;;;15.07;10.70;;;;;;;4.09;62.72;99480.91;5117417;27;40979;-81
2023/03/04 07:22:45;;;;;;;16.53;10.57;;;;;;;4.16;62.90;99478.09;5134266;27;42704;-77
2023/03/04 07:25:12;;;;;;;15.63;10.00;;;;;;;4.23;62.54;99484.88;5137381;27;42101;-79
2023/03/04 07:27:40;;;;;;;14.43;11.37;;;;;;;4.20;62.41;99473.66;5142031;27;41275;-84
2023/03/04 07:30:09;;;;;;;17.50;11.47;;;;;;;4.33;62.08;99490.75;5117961;27;39816;-81
2023/03/04 07:32:37;;;;;;;15.10;10.80;;;;;;;4.30;62.17;99477.75;5134940;27;40027;-79
2023/03/04 07:35:06;;;;;;;15.07;10.50;;;;;;;4.45;62.04;99486.94;5116318;27;42846;-78
2023/03/04 07:37:33;;;;;;;16.67;10.43;;;;;;;4.51;61.86;99485.00;5117402;27;41260;-81
2023/03/04 07:40:03;;;;;;;13.37;9.70;;;;;;;4.59;61.63;99490.03;5134484;27;40075;-78
2023/03/04 07:42:31;;;;;;;14.50;10.07;;;;;;;4.28;61.42;99424.47;5135202;27;40892;-80
2023/03/04 07:45:06;;;;;;;13.77;9.87;;;;;;;4.75;61.16;99493.94;5133459;27;42899;-82
2023/03/04 07:47:34;;;;;;;16.13;10.63;;;;;;;4.81;61.14;99495.53;5134407;27;42052;-82
2023/03/04 07:50:02;;;;;;;16.13;10.80;;;;;;;4.86;60.88;99501.50;5134515;27;39250;-79
2023/03/04 07:52:29;;;;;;;13.60;10.37;;;;;;;4.88;60.81;99497.06;5117553;27;40845;-80
2023/03/04 07:54:57;;;;;;;14.53;11.03;;;;;;;4.96;60.63;99501.19;5134456;27;43816;-81
2023/03/04 07:57:26;;;;;;;14.57;10.70;;;;;;;4.97;60.57;99497.66;5117478;27;41145;-81
2023/03/04 07:59:54;;;;;;;12.03;10.17;;;;;;;5.12;60.33;99504.22;5135412;27;40117;-80
2023/03/04 08:02:22;;;;;;;14.90;10.73;;;;;;;5.11;60.13;99492.00;5135350;27;40704;-77
2023/03/04 08:04:50;;;;;;;13.40;10.07;;;;;;;5.26;59.95;99503.78;5134279;27;43579;-80
2023/03/04 08:07:17;;;;;;;12.60;10.57;;;;;;;5.35;59.57;99507.00;5134520;27;42286;-79
2023/03/04 08:09:45;;;;;;;14.50;10.50;;;;;;;5.43;59.27;99505.91;5117443;27;39641;-78
2023/03/04 08:12:13;;;;;;;14.73;9.87;;;;;;;5.49;58.70;99509.19;5116911;27;40620;-81
2023/03/04 08:14:42;;;;;;;12.37;9.37;;;;;;;5.52;58.73;99506.47;5134151;27;42820;-81
2023/03/04 08:17:10;;;;;;;14.27;10.97;;;;;;;5.62;58.97;99507.03;5134270;27;40947;-82
2023/03/04 08:19:37;;;;;;;14.07;10.43;;;;;;;5.69;58.71;99511.16;5116725;27;40432;-80
2023/03/04 08:22:05;;;;;;;14.33;10.70;;;;;;;5.58;58.52;99487.00;5116929;27;41601;-82
2023/03/04 08:24:33;;;;;;;14.43;10.53;;;;;;;5.74;58.01;99510.13;5116714;27;41895;-76
2023/03/04 08:27:01;;;;;;;14.83;10.57;;;;;;;5.73;58.09;99497.03;5116774;27;41294;-82
2023/03/04 08:29:29;;;;;;;14.13;9.83;;;;;;;5.85;57.77;99520.28;5133835;27;40562;-78
2023/03/04 08:31:58;;;;;;;13.80;10.60;;;;;;;5.93;57.85;99520.94;5116957;27;40516;-79
2023/03/04 08:34:28;;;;;;;11.77;9.37;;;;;;;5.99;57.69;99515.47;5116338;27;42174;-77
2023/03/04 08:36:56;;;;;;;13.70;10.40;;;;;;;6.04;57.15;99517.97;5116719;27;42671;-83
2023/03/04 08:39:23;;;;;;;12.43;9.70;;;;;;;6.06;57.21;99522.22;5135173;27;40861;-81
2023/03/04 08:41:51;;;;;;;15.63;11.03;;;;;;;6.04;57.16;99516.19;5116401;27;41856;-82
2023/03/04 08:44:19;;;;;;;11.23;9.37;;;;;;;6.14;56.68;99535.13;5134686;27;43658;-83
2023/03/04 08:46:47;;;;;;;13.17;10.33;;;;;;;6.10;56.58;99518.59;5114937;27;42157;-82
2023/03/04 08:49:16;;;;;;;13.20;9.67;;;;;;;6.20;56.56;99528.78;5134826;27;40457;-81
2023/03/04 08:51:44;;;;;;;14.33;9.60;;;;;;;6.28;56.41;99537.31;5133292;27;41754;-85
2023/03/04 08:54:12;;;;;;;11.10;9.33;;;;;;;6.29;55.96;99534.63;5132721;27;43157;-78
2023/03/04 08:56:41;;;;;;;14.20;9.73;;;;;;;6.35;56.06;99536.16;5116143;27;41161;-83
2023/03/04 08:59:08;;;;;;;13.37;9.50;;;;;;;6.31;55.84;99521.38;5116157;27;39986;-81
2023/03/04 09:01:36;;;;;;;11.43;9.10;;;;;;;6.41;55.72;99533.34;5115935;27;41775;-79
2023/03/04 09:04:04;;;;;;;12.33;9.57;;;;;;;6.48;55.70;99534.84;5132988;27;41837;-83
2023/03/04 09:06:34;;;;;;;11.90;9.10;;;;;;;6.51;55.38;99542.63;5132745;27;42218;-81
2023/03/04 09:09:01;;;;;;;13.10;9.50;;;;;;;6.47;55.06;99522.59;5115591;27;39087;-83
2023/03/04 09:11:30;;;;;;;13.97;9.73;;;;;;;6.68;55.10;99529.72;5132977;27;41697;-80
2023/03/04 09:13:58;;;;;;;12.20;9.27;;;;;;;6.72;54.90;99523.44;5132682;27;41811;-81
2023/03/04 09:16:26;;;;;;;10.70;8.40;;;;;;;6.70;54.62;99508.59;5115504;27;42774;-79
2023/03/04 09:18:53;;;;;;;13.00;8.90;;;;;;;6.84;54.66;99528.25;5132683;27;39835;-81
2023/03/04 09:21:21;;;;;;;11.20;8.73;;;;;;;6.99;54.62;99533.88;5115799;27;41946;-80
2023/03/04 09:23:50;;;;;;;13.57;9.77;;;;;;;7.10;54.46;99537.81;5132607;27;42703;-79
2023/03/04 09:26:21;;;;;;;11.53;9.47;;;;;;;7.21;54.42;99524.25;5115714;27;41213;-79
2023/03/04 09:28:51;;;;;;;11.30;8.67;;;;;;;7.37;53.72;99532.41;5132998;27;39111;-79
2023/03/04 09:31:19;;;;;;;9.97;8.57;;;;;;;7.31;53.15;99522.97;5133644;27;41790;-77
2023/03/04 09:33:47;;;;;;;12.40;8.03;;;;;;;7.44;52.81;99539.16;5132287;27;42897;-79
2023/03/04 09:36:16;;;;;;;11.53;8.67;;;;;;;7.42;53.03;99526.03;5132870;27;42447;-78
2023/03/04 09:38:44;;;;;;;11.27;8.23;;;;;;;7.59;52.81;99541.19;5132489;27;40018;-82
2023/03/04 09:41:18;;;;;;;13.07;8.93;;;;;;;7.55;52.46;99535.19;5115182;27;42526;-82
2023/03/04 09:43:48;;;;;;;13.47;8.70;;;;;;;7.66;52.12;99547.09;5132364;27;42821;-82
2023/03/04 09:46:20;;;;;;;10.23;7.60;;;;;;;7.67;51.92;99546.16;5114753;27;42427;-82
2023/03/04 09:48:50;;;;;;;12.43;7.87;;;;;;;7.67;51.96;99546.16;5115663;27;39196;-80
2023/03/04 09:51:22;;;;;;;11.63;7.47;;;;;;;7.69;52.18;99544.31;5115343;27;40667;-83
2023/03/04 09:54:04;;;;;;;14.00;7.70;;;;;;;7.61;52.14;99520.06;5129332;27;42899;-84
2023/03/04 09:56:34;;;;;;;11.37;8.00;;;;;;;7.80;51.87;99548.25;5114981;27;42685;-78
2023/03/04 09:59:11;;;;;;;12.07;7.73;;;;;;;7.75;51.86;99542.31;5114996;27;40029;-81
2023/03/04 10:01:45;;;;;;;10.80;7.20;;;;;;;7.93;51.86;99553.88;5133704;27;41679;-80
2023/03/04 10:04:17;;;;;;;11.20;7.60;;;;;;;7.90;51.65;99543.47;5125417;27;42289;-78
2023/03/04 10:06:53;;;;;;;12.97;8.00;;;;;;;8.05;51.16;99558.66;5132059;27;41132;-80
2023/03/04 10:09:27;;;;;;;12.93;7.70;;;;;;;7.96;51.02;99530.03;5133396;27;20695;-79
2023/03/04 10:12:02;;;;;;;10.73;7.17;;;;;;;8.13;51.04;99551.31;5116005;27;40689;-77
2023/03/04 10:14:37;;;;;;;12.50;7.90;;;;;;;8.20;50.90;99550.13;5115137;27;41410;-80
2023/03/04 10:17:12;;;;;;;14.27;8.10;;;;;;;8.26;50.91;99546.38;5130513;27;42015;-82
2023/03/04 10:19:54;;;;;;;14.27;7.37;;;;;;;8.33;50.06;99552.28;5130908;27;40471;-82
2023/03/04 10:22:29;;;;;;;12.07;7.10;;;;;;;8.19;50.00;99529.94;5133573;27;40731;-82
2023/03/04 10:24:58;;;;;;;11.33;7.10;;;;;;;8.34;49.96;99543.44;5130932;27;42538;-78
2023/03/04 10:27:30;;;;;;;9.57;6.33;;;;;;;8.43;50.17;99541.25;5134260;27;43128;-80
2023/03/04 10:30:00;;;;;;;11.50;7.00;;;;;;;8.55;50.52;99547.78;5116185;27;39419;-78
2023/03/04 10:32:28;;;;;;;11.37;6.73;;;;;;;8.60;49.70;99529.97;5133000;27;40414;-80
2023/03/04 10:34:56;;;;;;;9.63;6.70;;;;;;;8.62;50.02;99513.16;5115259;27;41677;-82
2023/03/04 10:37:23;;;;;;;10.10;7.13;;;;;;;8.80;49.19;99532.59;5132751;27;41745;-79
2023/03/04 10:39:51;;;;;;;10.83;6.57;;;;;;;8.87;49.30;99538.47;5114872;27;38941;-82
2023/03/04 10:42:39;;;;;;;11.37;7.13;;;;;;;8.84;49.40;99513.03;5114855;27;41642;-82
2023/03/04 10:45:21;;;;;;;11.00;7.33;;;;;;;9.00;48.14;99540.50;5114391;27;44536;-78
2023/03/04 10:47:55;;;;;;;12.03;6.40;;;;;;;8.96;48.43;99541.56;5114774;27;41557;-84
2023/03/04 10:50:26;;;;;;;11.47;7.70;;;;;;;8.99;48.76;99533.50;5114564;27;41655;-80
2023/03/04 10:52:55;;;;;;;9.23;6.87;;;;;;;8.99;48.20;99548.47;5114344;27;42180;-83
2023/03/04 10:55:26;;;;;;;9.37;6.97;;;;;;;8.86;48.48;99527.03;5131586;27;42923;-81
2023/03/04 10:57:56;;;;;;;14.23;7.53;;;;;;;8.94;48.17;99550.47;5114649;27;41682;-82
2023/03/04 11:00:28;;;;;;;12.90;7.37;;;;;;;8.77;48.36;99516.91;5114252;27;39881;-80
2023/03/04 11:03:23;;;;;;;14.23;7.70;;;;;;;8.99;48.53;99533.50;5128631;27;41831;-81
2023/03/04 11:05:52;;;;;;;10.83;6.53;;;;;;;9.00;48.19;99524.66;5113365;27;42018;-77
2023/03/04 11:08:24;;;;;;;12.87;7.40;;;;;;;9.04;48.61;99527.13;5131285;27;41619;-81
2023/03/04 11:10:52;;;;;;;13.87;7.07;;;;;;;9.15;48.75;99527.53;5134612;27;38920;-80
2023/03/04 11:13:23;;;;;;;10.07;7.77;;;;;;;9.22;48.55;99523.66;5135292;27;40458;-81
2023/03/04 11:15:53;;;;;;;11.37;6.70;;;;;;;9.25;48.35;99523.53;5134893;27;41749;-83
2023/03/04 11:18:27;;;;;;;12.90;7.67;;;;;;;9.20;47.58;99531.66;5117666;27;42179;-82
2023/03/04 11:20:56;;;;;;;11.47;6.73;;;;;;;9.15;47.89;99523.06;5134620;27;38823;-80
2023/03/04 11:23:32;;;;;;;13.43;7.53;;;;;;;8.99;47.98;99496.50;5134867;27;41972;-81
2023/03/04 11:26:03;;;;;;;11.87;7.53;;;;;;;8.95;47.78;99494.06;5135104;27;42931;-80
2023/03/04 11:28:42;;;;;;;12.23;7.87;;;;;;;9.03;47.89;99513.06;5117731;27;42578;-82
2023/03/04 11:31:15;;;;;;;13.77;6.90;;;;;;;8.95;47.78;99521.34;5131807;27;40011;-81
2023/03/04 11:33:50;;;;;;;11.77;6.80;;;;;;;8.95;47.63;99510.78;5118338;27;41879;-79
2023/03/04 11:36:34;;;;;;;15.70;8.27;;;;;;;8.93;47.94;99512.63;5134880;27;43656;-80
2023/03/04 11:39:05;;;;;;;11.73;7.47;;;;;;;8.93;48.09;99512.63;5118268;27;43559;-81